sensor_id;sensor_type;location;lat;lon;timestamp;temperature;humidity
4010;DHT22;2019;48.200;11.548;2022-07-01T00:02:00;22.70;71.50
4010;DHT22;2019;48.200;11.548;2022-07-01T00:04:26;22.70;72.10
4010;DHT22;2019;48.200;11.548;2022-07-01T00:06:55;22.70;72.60
4010;DHT22;2019;48.200;11.548;2022-07-01T00:09:22;22.70;73.20
4010;DHT22;2019;48.200;11.548;2022-07-01T00:11:48;22.60;73.50
4010;DHT22;2019;48.200;11.548;2022-07-01T00:14:14;22.60;73.70
4010;DHT22;2019;48.200;11.548;2022-07-01T00:16:40;22.60;73.90
4010;DHT22;2019;48.200;11.548;2022-07-01T00:19:06;22.60;74.00
4010;DHT22;2019;48.200;11.548;2022-07-01T00:21:32;22.60;74.00
4010;DHT22;2019;48.200;11.548;2022-07-01T00:23:58;22.60;73.90
4010;DHT22;2019;48.200;11.548;2022-07-01T00:26:23;22.60;73.80
4010;DHT22;2019;48.200;11.548;2022-07-01T00:28:49;22.60;73.60
4010;DHT22;2019;48.200;11.548;2022-07-01T00:31:15;22.60;73.50
4010;DHT22;2019;48.200;11.548;2022-07-01T00:33:40;22.60;73.50
4010;DHT22;2019;48.200;11.548;2022-07-01T00:36:06;22.60;73.40
4010;DHT22;2019;48.200;11.548;2022-07-01T00:38:31;22.60;74.00
4010;DHT22;2019;48.200;11.548;2022-07-01T00:40:57;22.60;73.20
4010;DHT22;2019;48.200;11.548;2022-07-01T00:43:23;22.60;73.10
4010;DHT22;2019;48.200;11.548;2022-07-01T00:45:50;22.60;73.10
4010;DHT22;2019;48.200;11.548;2022-07-01T00:48:19;22.60;73.20
4010;DHT22;2019;48.200;11.548;2022-07-01T00:50:45;22.60;73.60
4010;DHT22;2019;48.200;11.548;2022-07-01T00:53:14;22.60;74.00
4010;DHT22;2019;48.200;11.548;2022-07-01T00:55:41;22.60;73.90
4010;DHT22;2019;48.200;11.548;2022-07-01T00:58:08;22.60;73.70
4010;DHT22;2019;48.200;11.548;2022-07-01T01:00:34;22.60;73.70
4010;DHT22;2019;48.200;11.548;2022-07-01T01:03:00;22.60;73.80
4010;DHT22;2019;48.200;11.548;2022-07-01T01:05:25;22.60;73.20
4010;DHT22;2019;48.200;11.548;2022-07-01T01:07:51;22.50;72.70
4010;DHT22;2019;48.200;11.548;2022-07-01T01:10:18;22.50;72.40
4010;DHT22;2019;48.200;11.548;2022-07-01T01:12:43;22.50;72.30
4010;DHT22;2019;48.200;11.548;2022-07-01T01:15:09;22.50;71.70
4010;DHT22;2019;48.200;11.548;2022-07-01T01:17:36;22.40;71.00
4010;DHT22;2019;48.200;11.548;2022-07-01T01:20:03;22.40;70.70
4010;DHT22;2019;48.200;11.548;2022-07-01T01:22:28;22.40;70.50
4010;DHT22;2019;48.200;11.548;2022-07-01T01:24:54;22.40;70.20
4010;DHT22;2019;48.200;11.548;2022-07-01T01:27:20;22.40;69.90
4010;DHT22;2019;48.200;11.548;2022-07-01T01:29:46;22.30;69.50
4010;DHT22;2019;48.200;11.548;2022-07-01T01:32:11;22.30;69.40
4010;DHT22;2019;48.200;11.548;2022-07-01T01:34:38;22.30;69.50
4010;DHT22;2019;48.200;11.548;2022-07-01T01:37:05;22.30;69.30
4010;DHT22;2019;48.200;11.548;2022-07-01T01:39:31;22.30;69.00
4010;DHT22;2019;48.200;11.548;2022-07-01T01:41:57;22.30;68.90
4010;DHT22;2019;48.200;11.548;2022-07-01T01:44:23;22.30;69.00
4010;DHT22;2019;48.200;11.548;2022-07-01T01:46:48;22.20;68.80
4010;DHT22;2019;48.200;11.548;2022-07-01T01:49:14;22.20;68.80
4010;DHT22;2019;48.200;11.548;2022-07-01T01:51:40;22.20;68.80
4010;DHT22;2019;48.200;11.548;2022-07-01T01:54:05;22.20;68.90
4010;DHT22;2019;48.200;11.548;2022-07-01T01:56:31;22.20;68.80
4010;DHT22;2019;48.200;11.548;2022-07-01T01:58:58;22.10;68.90
4010;DHT22;2019;48.200;11.548;2022-07-01T02:01:23;22.10;69.20
4010;DHT22;2019;48.200;11.548;2022-07-01T02:03:51;22.10;69.30
4010;DHT22;2019;48.200;11.548;2022-07-01T02:06:18;22.10;70.00
4010;DHT22;2019;48.200;11.548;2022-07-01T02:08:44;22.00;70.20
4010;DHT22;2019;48.200;11.548;2022-07-01T02:11:09;22.00;69.70
4010;DHT22;2019;48.200;11.548;2022-07-01T02:13:36;22.00;69.80
4010;DHT22;2019;48.200;11.548;2022-07-01T02:16:02;22.00;70.00
4010;DHT22;2019;48.200;11.548;2022-07-01T02:18:28;22.00;70.00
4010;DHT22;2019;48.200;11.548;2022-07-01T02:20:54;22.00;70.20
4010;DHT22;2019;48.200;11.548;2022-07-01T02:23:20;22.00;70.20
4010;DHT22;2019;48.200;11.548;2022-07-01T02:25:45;22.00;70.40
4010;DHT22;2019;48.200;11.548;2022-07-01T02:28:14;21.90;70.40
4010;DHT22;2019;48.200;11.548;2022-07-01T02:30:40;21.90;70.60
4010;DHT22;2019;48.200;11.548;2022-07-01T02:33:07;21.90;70.80
4010;DHT22;2019;48.200;11.548;2022-07-01T02:35:34;21.90;71.00
4010;DHT22;2019;48.200;11.548;2022-07-01T02:38:00;21.90;71.10
4010;DHT22;2019;48.200;11.548;2022-07-01T02:40:26;21.90;71.40
4010;DHT22;2019;48.200;11.548;2022-07-01T02:42:52;21.80;71.40
4010;DHT22;2019;48.200;11.548;2022-07-01T02:45:17;21.80;71.60
4010;DHT22;2019;48.200;11.548;2022-07-01T02:47:43;21.80;71.70
4010;DHT22;2019;48.200;11.548;2022-07-01T02:50:12;21.80;71.80
4010;DHT22;2019;48.200;11.548;2022-07-01T02:52:40;21.80;72.70
4010;DHT22;2019;48.200;11.548;2022-07-01T02:55:08;21.80;72.20
4010;DHT22;2019;48.200;11.548;2022-07-01T02:57:34;21.80;72.20
4010;DHT22;2019;48.200;11.548;2022-07-01T03:00:00;21.80;72.30
4010;DHT22;2019;48.200;11.548;2022-07-01T03:02:26;21.70;72.30
4010;DHT22;2019;48.200;11.548;2022-07-01T03:04:52;21.70;72.50
4010;DHT22;2019;48.200;11.548;2022-07-01T03:07:19;21.70;72.60
4010;DHT22;2019;48.200;11.548;2022-07-01T03:09:45;21.70;72.70
4010;DHT22;2019;48.200;11.548;2022-07-01T03:12:12;21.70;72.90
4010;DHT22;2019;48.200;11.548;2022-07-01T03:17:20;21.70;73.00
4010;DHT22;2019;48.200;11.548;2022-07-01T03:19:47;21.60;72.90
4010;DHT22;2019;48.200;11.548;2022-07-01T03:22:13;21.60;73.10
4010;DHT22;2019;48.200;11.548;2022-07-01T03:24:39;21.70;73.30
4010;DHT22;2019;48.200;11.548;2022-07-01T03:27:04;21.60;73.30
4010;DHT22;2019;48.200;11.548;2022-07-01T03:29:30;21.60;73.30
4010;DHT22;2019;48.200;11.548;2022-07-01T03:31:56;21.60;73.30
4010;DHT22;2019;48.200;11.548;2022-07-01T03:34:22;21.60;73.40
4010;DHT22;2019;48.200;11.548;2022-07-01T03:36:47;21.60;73.40
4010;DHT22;2019;48.200;11.548;2022-07-01T03:39:13;21.60;73.50
4010;DHT22;2019;48.200;11.548;2022-07-01T03:41:39;21.60;73.50
4010;DHT22;2019;48.200;11.548;2022-07-01T03:44:04;21.60;73.50
4010;DHT22;2019;48.200;11.548;2022-07-01T03:46:32;21.50;73.50
4010;DHT22;2019;48.200;11.548;2022-07-01T03:48:58;21.50;73.60
4010;DHT22;2019;48.200;11.548;2022-07-01T03:51:24;21.50;73.80
4010;DHT22;2019;48.200;11.548;2022-07-01T03:53:50;21.50;73.80
4010;DHT22;2019;48.200;11.548;2022-07-01T03:56:34;21.50;73.80
4010;DHT22;2019;48.200;11.548;2022-07-01T03:59:00;21.50;73.80
4010;DHT22;2019;48.200;11.548;2022-07-01T04:01:25;21.50;73.90
4010;DHT22;2019;48.200;11.548;2022-07-01T04:03:51;21.50;73.90
4010;DHT22;2019;48.200;11.548;2022-07-01T04:06:17;21.50;74.00
4010;DHT22;2019;48.200;11.548;2022-07-01T04:08:42;21.50;74.10
4010;DHT22;2019;48.200;11.548;2022-07-01T04:11:09;21.50;74.10
4010;DHT22;2019;48.200;11.548;2022-07-01T04:13:36;21.50;74.20
4010;DHT22;2019;48.200;11.548;2022-07-01T04:16:05;21.50;74.20
4010;DHT22;2019;48.200;11.548;2022-07-01T04:18:31;21.50;74.30
4010;DHT22;2019;48.200;11.548;2022-07-01T04:20:57;21.50;74.40
4010;DHT22;2019;48.200;11.548;2022-07-01T04:23:41;21.50;74.50
4010;DHT22;2019;48.200;11.548;2022-07-01T04:26:07;21.50;74.50
4010;DHT22;2019;48.200;11.548;2022-07-01T04:28:33;21.50;74.70
4010;DHT22;2019;48.200;11.548;2022-07-01T04:30:58;21.50;74.80
4010;DHT22;2019;48.200;11.548;2022-07-01T04:33:25;21.50;74.70
4010;DHT22;2019;48.200;11.548;2022-07-01T04:35:51;21.50;74.80
4010;DHT22;2019;48.200;11.548;2022-07-01T04:38:17;21.50;74.90
4010;DHT22;2019;48.200;11.548;2022-07-01T04:40:42;21.50;75.00
4010;DHT22;2019;48.200;11.548;2022-07-01T04:43:28;21.50;75.60
4010;DHT22;2019;48.200;11.548;2022-07-01T04:45:54;21.50;75.00
4010;DHT22;2019;48.200;11.548;2022-07-01T04:48:20;21.60;74.90
4010;DHT22;2019;48.200;11.548;2022-07-01T04:50:46;21.60;75.50
4010;DHT22;2019;48.200;11.548;2022-07-01T04:53:13;21.50;74.80
4010;DHT22;2019;48.200;11.548;2022-07-01T04:55:39;21.50;74.80
4010;DHT22;2019;48.200;11.548;2022-07-01T04:58:04;21.50;74.80
4010;DHT22;2019;48.200;11.548;2022-07-01T05:00:30;21.60;75.50
4010;DHT22;2019;48.200;11.548;2022-07-01T05:02:56;21.60;74.80
4010;DHT22;2019;48.200;11.548;2022-07-01T05:05:21;21.60;74.70
4010;DHT22;2019;48.200;11.548;2022-07-01T05:07:47;21.60;74.70
4010;DHT22;2019;48.200;11.548;2022-07-01T05:10:13;21.60;74.80
4010;DHT22;2019;48.200;11.548;2022-07-01T05:12:38;21.70;74.90
4010;DHT22;2019;48.200;11.548;2022-07-01T05:15:04;21.70;74.80
4010;DHT22;2019;48.200;11.548;2022-07-01T05:17:35;21.70;74.80
4010;DHT22;2019;48.200;11.548;2022-07-01T05:20:19;21.70;75.40
4010;DHT22;2019;48.200;11.548;2022-07-01T05:23:03;21.70;74.60
4010;DHT22;2019;48.200;11.548;2022-07-01T05:25:29;21.70;74.40
4010;DHT22;2019;48.200;11.548;2022-07-01T05:27:55;21.70;74.40
4010;DHT22;2019;48.200;11.548;2022-07-01T05:30:21;21.70;74.50
4010;DHT22;2019;48.200;11.548;2022-07-01T05:32:47;21.70;74.50
4010;DHT22;2019;48.200;11.548;2022-07-01T05:35:13;21.70;74.60
4010;DHT22;2019;48.200;11.548;2022-07-01T05:37:40;21.80;74.80
4010;DHT22;2019;48.200;11.548;2022-07-01T05:40:06;21.80;75.00
4010;DHT22;2019;48.200;11.548;2022-07-01T05:42:32;21.80;75.10
4010;DHT22;2019;48.200;11.548;2022-07-01T05:44:57;21.90;75.20
4010;DHT22;2019;48.200;11.548;2022-07-01T05:47:23;21.90;75.00
4010;DHT22;2019;48.200;11.548;2022-07-01T05:49:48;21.90;75.10
4010;DHT22;2019;48.200;11.548;2022-07-01T05:52:14;21.90;75.10
4010;DHT22;2019;48.200;11.548;2022-07-01T05:54:39;21.90;74.80
4010;DHT22;2019;48.200;11.548;2022-07-01T05:57:05;22.00;74.90
4010;DHT22;2019;48.200;11.548;2022-07-01T05:59:31;22.00;75.00
4010;DHT22;2019;48.200;11.548;2022-07-01T06:01:56;22.00;74.80
4010;DHT22;2019;48.200;11.548;2022-07-01T06:04:22;22.00;74.90
4010;DHT22;2019;48.200;11.548;2022-07-01T06:06:48;22.10;75.30
4010;DHT22;2019;48.200;11.548;2022-07-01T06:09:14;22.10;75.20
4010;DHT22;2019;48.200;11.548;2022-07-01T06:11:39;22.20;75.20
4010;DHT22;2019;48.200;11.548;2022-07-01T06:14:05;22.20;75.20
4010;DHT22;2019;48.200;11.548;2022-07-01T06:16:30;22.20;75.00
4010;DHT22;2019;48.200;11.548;2022-07-01T06:18:56;22.30;75.10
4010;DHT22;2019;48.200;11.548;2022-07-01T06:21:22;22.30;75.70
4010;DHT22;2019;48.200;11.548;2022-07-01T06:23:47;22.40;75.20
4010;DHT22;2019;48.200;11.548;2022-07-01T06:26:13;22.50;75.20
4010;DHT22;2019;48.200;11.548;2022-07-01T06:28:38;22.50;75.10
4010;DHT22;2019;48.200;11.548;2022-07-01T06:31:04;22.60;75.10
4010;DHT22;2019;48.200;11.548;2022-07-01T06:33:30;22.60;74.50
4010;DHT22;2019;48.200;11.548;2022-07-01T06:35:56;22.70;73.90
4010;DHT22;2019;48.200;11.548;2022-07-01T06:38:23;22.70;73.70
4010;DHT22;2019;48.200;11.548;2022-07-01T06:40:48;22.70;73.60
4010;DHT22;2019;48.200;11.548;2022-07-01T06:43:35;22.70;73.30
4010;DHT22;2019;48.200;11.548;2022-07-01T06:46:01;22.70;73.10
4010;DHT22;2019;48.200;11.548;2022-07-01T06:48:27;22.70;73.00
4010;DHT22;2019;48.200;11.548;2022-07-01T06:50:52;22.70;72.60
4010;DHT22;2019;48.200;11.548;2022-07-01T06:53:18;22.70;72.70
4010;DHT22;2019;48.200;11.548;2022-07-01T06:55:43;22.70;72.80
4010;DHT22;2019;48.200;11.548;2022-07-01T06:58:09;22.80;73.00
4010;DHT22;2019;48.200;11.548;2022-07-01T07:00:36;22.80;73.10
4010;DHT22;2019;48.200;11.548;2022-07-01T07:03:02;22.80;73.00
4010;DHT22;2019;48.200;11.548;2022-07-01T07:05:27;22.80;72.80
4010;DHT22;2019;48.200;11.548;2022-07-01T07:07:56;22.80;72.70
4010;DHT22;2019;48.200;11.548;2022-07-01T07:10:22;22.80;72.50
4010;DHT22;2019;48.200;11.548;2022-07-01T07:12:48;22.80;72.50
4010;DHT22;2019;48.200;11.548;2022-07-01T07:15:13;22.80;72.70
4010;DHT22;2019;48.200;11.548;2022-07-01T07:17:39;22.80;72.70
4010;DHT22;2019;48.200;11.548;2022-07-01T07:20:05;22.80;72.60
4010;DHT22;2019;48.200;11.548;2022-07-01T07:22:31;22.70;72.50
4010;DHT22;2019;48.200;11.548;2022-07-01T07:24:56;22.60;72.30
4010;DHT22;2019;48.200;11.548;2022-07-01T07:27:22;22.60;72.30
4010;DHT22;2019;48.200;11.548;2022-07-01T07:29:47;22.50;72.10
4010;DHT22;2019;48.200;11.548;2022-07-01T07:32:13;22.40;72.10
4010;DHT22;2019;48.200;11.548;2022-07-01T07:34:39;22.30;72.20
4010;DHT22;2019;48.200;11.548;2022-07-01T07:37:04;22.30;72.40
4010;DHT22;2019;48.200;11.548;2022-07-01T07:39:30;22.20;72.50
4010;DHT22;2019;48.200;11.548;2022-07-01T07:41:56;22.20;72.70
4010;DHT22;2019;48.200;11.548;2022-07-01T07:44:21;22.10;72.80
4010;DHT22;2019;48.200;11.548;2022-07-01T07:46:47;22.10;72.90
4010;DHT22;2019;48.200;11.548;2022-07-01T07:49:13;22.10;73.10
4010;DHT22;2019;48.200;11.548;2022-07-01T07:51:38;22.00;73.00
4010;DHT22;2019;48.200;11.548;2022-07-01T07:54:04;21.90;73.00
4010;DHT22;2019;48.200;11.548;2022-07-01T07:56:30;21.90;72.90
4010;DHT22;2019;48.200;11.548;2022-07-01T07:58:56;21.80;73.00
4010;DHT22;2019;48.200;11.548;2022-07-01T08:01:22;21.80;73.00
4010;DHT22;2019;48.200;11.548;2022-07-01T08:03:47;21.70;73.00
4010;DHT22;2019;48.200;11.548;2022-07-01T08:06:13;21.70;73.10
4010;DHT22;2019;48.200;11.548;2022-07-01T08:08:39;21.60;72.90
4010;DHT22;2019;48.200;11.548;2022-07-01T08:11:04;21.60;72.90
4010;DHT22;2019;48.200;11.548;2022-07-01T08:13:31;21.50;72.30
4010;DHT22;2019;48.200;11.548;2022-07-01T08:15:57;21.40;71.00
4010;DHT22;2019;48.200;11.548;2022-07-01T08:18:23;21.30;69.40
4010;DHT22;2019;48.200;11.548;2022-07-01T08:20:48;21.10;68.70
4010;DHT22;2019;48.200;11.548;2022-07-01T08:23:18;21.10;68.60
4010;DHT22;2019;48.200;11.548;2022-07-01T08:25:44;21.00;68.90
4010;DHT22;2019;48.200;11.548;2022-07-01T08:28:10;20.90;68.80
4010;DHT22;2019;48.200;11.548;2022-07-01T08:30:36;20.80;69.10
4010;DHT22;2019;48.200;11.548;2022-07-01T08:33:01;20.70;69.60
4010;DHT22;2019;48.200;11.548;2022-07-01T08:35:27;20.50;68.80
4010;DHT22;2019;48.200;11.548;2022-07-01T08:37:53;20.40;69.00
4010;DHT22;2019;48.200;11.548;2022-07-01T08:40:19;20.40;68.90
4010;DHT22;2019;48.200;11.548;2022-07-01T08:42:49;20.30;68.60
4010;DHT22;2019;48.200;11.548;2022-07-01T08:45:14;20.10;68.20
4010;DHT22;2019;48.200;11.548;2022-07-01T08:47:50;20.10;67.90
4010;DHT22;2019;48.200;11.548;2022-07-01T08:50:16;20.00;67.60
4010;DHT22;2019;48.200;11.548;2022-07-01T08:52:42;19.90;67.70
4010;DHT22;2019;48.200;11.548;2022-07-01T08:55:07;20.00;68.00
4010;DHT22;2019;48.200;11.548;2022-07-01T08:57:33;19.80;68.20
4010;DHT22;2019;48.200;11.548;2022-07-01T09:00:07;19.80;68.30
4010;DHT22;2019;48.200;11.548;2022-07-01T09:03:01;19.80;68.80
4010;DHT22;2019;48.200;11.548;2022-07-01T09:05:29;19.80;69.10
4010;DHT22;2019;48.200;11.548;2022-07-01T09:08:03;19.80;69.50
4010;DHT22;2019;48.200;11.548;2022-07-01T09:10:30;19.80;70.60
4010;DHT22;2019;48.200;11.548;2022-07-01T09:13:09;19.80;70.00
4010;DHT22;2019;48.200;11.548;2022-07-01T09:15:37;19.90;70.10
4010;DHT22;2019;48.200;11.548;2022-07-01T09:20:31;19.90;69.70
4010;DHT22;2019;48.200;11.548;2022-07-01T09:23:08;19.90;69.70
4010;DHT22;2019;48.200;11.548;2022-07-01T09:25:49;20.00;69.80
4010;DHT22;2019;48.200;11.548;2022-07-01T09:28:18;20.00;69.60
4010;DHT22;2019;48.200;11.548;2022-07-01T09:30:46;20.00;69.60
4010;DHT22;2019;48.200;11.548;2022-07-01T09:33:18;20.00;70.00
4010;DHT22;2019;48.200;11.548;2022-07-01T09:35:45;20.00;70.10
4010;DHT22;2019;48.200;11.548;2022-07-01T09:38:16;20.00;70.00
4010;DHT22;2019;48.200;11.548;2022-07-01T09:41:02;20.00;70.30
4010;DHT22;2019;48.200;11.548;2022-07-01T09:43:31;20.00;70.60
4010;DHT22;2019;48.200;11.548;2022-07-01T09:46:02;20.00;70.60
4010;DHT22;2019;48.200;11.548;2022-07-01T09:51:04;19.90;70.20
4010;DHT22;2019;48.200;11.548;2022-07-01T09:53:30;19.90;70.30
4010;DHT22;2019;48.200;11.548;2022-07-01T09:55:56;19.80;70.20
4010;DHT22;2019;48.200;11.548;2022-07-01T09:58:22;19.80;70.40
4010;DHT22;2019;48.200;11.548;2022-07-01T10:00:48;19.70;70.70
4010;DHT22;2019;48.200;11.548;2022-07-01T10:03:18;19.70;70.80
4010;DHT22;2019;48.200;11.548;2022-07-01T10:09:11;19.70;71.40
4010;DHT22;2019;48.200;11.548;2022-07-01T10:14:09;19.70;71.40
4010;DHT22;2019;48.200;11.548;2022-07-01T10:16:35;19.70;71.60
4010;DHT22;2019;48.200;11.548;2022-07-01T10:19:28;19.70;71.90
4010;DHT22;2019;48.200;11.548;2022-07-01T10:21:54;19.70;72.60
4010;DHT22;2019;48.200;11.548;2022-07-01T10:24:23;19.70;72.30
4010;DHT22;2019;48.200;11.548;2022-07-01T10:26:50;19.70;72.50
4010;DHT22;2019;48.200;11.548;2022-07-01T10:29:34;19.70;72.70
4010;DHT22;2019;48.200;11.548;2022-07-01T10:32:07;19.80;72.60
4010;DHT22;2019;48.200;11.548;2022-07-01T10:34:37;19.80;72.90
4010;DHT22;2019;48.200;11.548;2022-07-01T10:37:06;19.80;73.00
4010;DHT22;2019;48.200;11.548;2022-07-01T10:39:56;19.80;72.90
4010;DHT22;2019;48.200;11.548;2022-07-01T10:43:14;19.80;73.10
4010;DHT22;2019;48.200;11.548;2022-07-01T10:45:13;19.90;73.20
4010;DHT22;2019;48.200;11.548;2022-07-01T10:47:39;19.90;73.20
4010;DHT22;2019;48.200;11.548;2022-07-01T10:50:12;19.90;73.10
4010;DHT22;2019;48.200;11.548;2022-07-01T10:52:38;19.90;73.20
4010;DHT22;2019;48.200;11.548;2022-07-01T10:55:08;20.00;73.20
4010;DHT22;2019;48.200;11.548;2022-07-01T10:57:40;20.00;72.80
4010;DHT22;2019;48.200;11.548;2022-07-01T11:02:34;20.00;71.80
4010;DHT22;2019;48.200;11.548;2022-07-01T11:05:07;19.90;71.40
4010;DHT22;2019;48.200;11.548;2022-07-01T11:07:35;19.90;71.50
4010;DHT22;2019;48.200;11.548;2022-07-01T11:10:05;19.90;71.60
4010;DHT22;2019;48.200;11.548;2022-07-01T11:12:32;19.90;71.80
4010;DHT22;2019;48.200;11.548;2022-07-01T11:14:59;19.90;72.20
4010;DHT22;2019;48.200;11.548;2022-07-01T11:17:27;19.90;72.00
4010;DHT22;2019;48.200;11.548;2022-07-01T11:19:55;19.90;72.00
4010;DHT22;2019;48.200;11.548;2022-07-01T11:22:26;19.80;72.10
4010;DHT22;2019;48.200;11.548;2022-07-01T11:24:57;19.80;72.20
4010;DHT22;2019;48.200;11.548;2022-07-01T11:27:23;19.80;72.30
4010;DHT22;2019;48.200;11.548;2022-07-01T11:30:00;19.80;72.60
4010;DHT22;2019;48.200;11.548;2022-07-01T11:32:37;19.80;72.80
4010;DHT22;2019;48.200;11.548;2022-07-01T11:35:05;19.80;72.90
4010;DHT22;2019;48.200;11.548;2022-07-01T11:40:52;19.80;73.00
4010;DHT22;2019;48.200;11.548;2022-07-01T11:43:24;19.70;72.60
4010;DHT22;2019;48.200;11.548;2022-07-01T11:45:51;19.70;72.20
4010;DHT22;2019;48.200;11.548;2022-07-01T11:51:12;19.70;72.40
4010;DHT22;2019;48.200;11.548;2022-07-01T11:53:43;19.70;72.40
4010;DHT22;2019;48.200;11.548;2022-07-01T11:56:09;19.70;73.30
4010;DHT22;2019;48.200;11.548;2022-07-01T11:58:46;19.70;72.60
4010;DHT22;2019;48.200;11.548;2022-07-01T12:01:20;19.70;73.00
4010;DHT22;2019;48.200;11.548;2022-07-01T12:03:46;19.70;74.00
4010;DHT22;2019;48.200;11.548;2022-07-01T12:06:12;19.70;73.30
4010;DHT22;2019;48.200;11.548;2022-07-01T12:08:37;19.80;73.30
4010;DHT22;2019;48.200;11.548;2022-07-01T12:11:04;19.80;73.40
4010;DHT22;2019;48.200;11.548;2022-07-01T12:13:34;19.80;73.10
4010;DHT22;2019;48.200;11.548;2022-07-01T12:16:08;19.90;72.80
4010;DHT22;2019;48.200;11.548;2022-07-01T12:18:35;19.90;72.80
4010;DHT22;2019;48.200;11.548;2022-07-01T12:21:01;19.90;72.80
4010;DHT22;2019;48.200;11.548;2022-07-01T12:23:26;20.00;73.10
4010;DHT22;2019;48.200;11.548;2022-07-01T12:25:52;19.90;73.00
4010;DHT22;2019;48.200;11.548;2022-07-01T12:28:36;19.90;72.90
4010;DHT22;2019;48.200;11.548;2022-07-01T12:31:07;19.90;73.20
4010;DHT22;2019;48.200;11.548;2022-07-01T12:33:49;19.90;73.00
4010;DHT22;2019;48.200;11.548;2022-07-01T12:36:15;19.90;73.20
4010;DHT22;2019;48.200;11.548;2022-07-01T12:38:42;19.90;73.30
4010;DHT22;2019;48.200;11.548;2022-07-01T12:41:27;19.90;73.40
4010;DHT22;2019;48.200;11.548;2022-07-01T12:43:53;19.90;73.80
4010;DHT22;2019;48.200;11.548;2022-07-01T12:46:32;19.80;73.60
4010;DHT22;2019;48.200;11.548;2022-07-01T12:48:58;19.80;73.60
4010;DHT22;2019;48.200;11.548;2022-07-01T12:51:31;19.80;73.80
4010;DHT22;2019;48.200;11.548;2022-07-01T12:53:58;19.80;73.70
4010;DHT22;2019;48.200;11.548;2022-07-01T12:56:28;19.70;73.60
4010;DHT22;2019;48.200;11.548;2022-07-01T12:58:54;19.70;73.60
4010;DHT22;2019;48.200;11.548;2022-07-01T13:01:21;19.70;73.80
4010;DHT22;2019;48.200;11.548;2022-07-01T13:03:47;19.60;73.80
4010;DHT22;2019;48.200;11.548;2022-07-01T13:06:13;19.60;74.00
4010;DHT22;2019;48.200;11.548;2022-07-01T13:08:39;19.60;74.60
4010;DHT22;2019;48.200;11.548;2022-07-01T13:11:05;19.60;74.70
4010;DHT22;2019;48.200;11.548;2022-07-01T13:13:31;19.60;75.20
4010;DHT22;2019;48.200;11.548;2022-07-01T13:15:57;19.70;75.50
4010;DHT22;2019;48.200;11.548;2022-07-01T13:18:22;19.70;75.60
4010;DHT22;2019;48.200;11.548;2022-07-01T13:20:48;19.70;75.70
4010;DHT22;2019;48.200;11.548;2022-07-01T13:23:14;19.70;75.80
4010;DHT22;2019;48.200;11.548;2022-07-01T13:25:40;19.80;75.70
4010;DHT22;2019;48.200;11.548;2022-07-01T13:28:06;19.70;75.90
4010;DHT22;2019;48.200;11.548;2022-07-01T13:30:33;19.70;75.80
4010;DHT22;2019;48.200;11.548;2022-07-01T13:32:59;19.70;75.70
4010;DHT22;2019;48.200;11.548;2022-07-01T13:35:24;19.70;75.50
4010;DHT22;2019;48.200;11.548;2022-07-01T13:37:51;19.70;75.50
4010;DHT22;2019;48.200;11.548;2022-07-01T13:40:17;19.70;75.40
4010;DHT22;2019;48.200;11.548;2022-07-01T13:42:42;19.70;75.60
4010;DHT22;2019;48.200;11.548;2022-07-01T13:45:08;19.70;75.60
4010;DHT22;2019;48.200;11.548;2022-07-01T13:47:34;19.70;75.50
4010;DHT22;2019;48.200;11.548;2022-07-01T13:50:00;19.70;75.50
4010;DHT22;2019;48.200;11.548;2022-07-01T13:52:26;19.70;75.60
4010;DHT22;2019;48.200;11.548;2022-07-01T13:54:54;19.70;75.70
4010;DHT22;2019;48.200;11.548;2022-07-01T13:57:20;19.70;75.80
4010;DHT22;2019;48.200;11.548;2022-07-01T13:59:46;19.70;76.50
4010;DHT22;2019;48.200;11.548;2022-07-01T14:02:11;19.70;75.80
4010;DHT22;2019;48.200;11.548;2022-07-01T14:04:37;19.70;75.90
4010;DHT22;2019;48.200;11.548;2022-07-01T14:07:03;19.70;76.40
4010;DHT22;2019;48.200;11.548;2022-07-01T14:09:29;19.70;76.40
4010;DHT22;2019;48.200;11.548;2022-07-01T14:11:55;19.70;76.40
4010;DHT22;2019;48.200;11.548;2022-07-01T14:14:20;19.60;76.10
4010;DHT22;2019;48.200;11.548;2022-07-01T14:16:46;19.60;75.80
4010;DHT22;2019;48.200;11.548;2022-07-01T14:19:12;19.60;75.80
4010;DHT22;2019;48.200;11.548;2022-07-01T14:21:37;19.60;75.80
4010;DHT22;2019;48.200;11.548;2022-07-01T14:24:04;19.60;75.80
4010;DHT22;2019;48.200;11.548;2022-07-01T14:26:30;19.50;75.60
4010;DHT22;2019;48.200;11.548;2022-07-01T14:28:55;19.50;75.70
4010;DHT22;2019;48.200;11.548;2022-07-01T14:31:21;19.50;76.00
4010;DHT22;2019;48.200;11.548;2022-07-01T14:33:46;19.50;76.10
4010;DHT22;2019;48.200;11.548;2022-07-01T14:36:13;19.50;76.40
4010;DHT22;2019;48.200;11.548;2022-07-01T14:38:39;19.40;76.30
4010;DHT22;2019;48.200;11.548;2022-07-01T14:41:05;19.40;76.40
4010;DHT22;2019;48.200;11.548;2022-07-01T14:43:30;19.40;76.40
4010;DHT22;2019;48.200;11.548;2022-07-01T14:45:57;19.40;76.60
4010;DHT22;2019;48.200;11.548;2022-07-01T14:48:22;19.40;76.80
4010;DHT22;2019;48.200;11.548;2022-07-01T14:50:48;19.40;76.90
4010;DHT22;2019;48.200;11.548;2022-07-01T14:53:14;19.40;77.10
4010;DHT22;2019;48.200;11.548;2022-07-01T14:55:39;19.40;77.30
4010;DHT22;2019;48.200;11.548;2022-07-01T14:58:05;19.40;77.50
4010;DHT22;2019;48.200;11.548;2022-07-01T15:00:31;19.50;78.00
4010;DHT22;2019;48.200;11.548;2022-07-01T15:03:02;19.50;78.20
4010;DHT22;2019;48.200;11.548;2022-07-01T15:05:28;19.50;78.20
4010;DHT22;2019;48.200;11.548;2022-07-01T15:07:54;19.60;78.50
4010;DHT22;2019;48.200;11.548;2022-07-01T15:10:19;19.60;78.40
4010;DHT22;2019;48.200;11.548;2022-07-01T15:12:45;19.60;78.20
4010;DHT22;2019;48.200;11.548;2022-07-01T15:15:10;19.60;78.00
4010;DHT22;2019;48.200;11.548;2022-07-01T15:17:45;19.70;78.00
4010;DHT22;2019;48.200;11.548;2022-07-01T15:20:12;19.70;78.90
4010;DHT22;2019;48.200;11.548;2022-07-01T15:22:38;19.70;78.10
4010;DHT22;2019;48.200;11.548;2022-07-01T15:25:04;19.70;78.00
4010;DHT22;2019;48.200;11.548;2022-07-01T15:27:30;19.70;78.00
4010;DHT22;2019;48.200;11.548;2022-07-01T15:29:56;19.70;77.60
4010;DHT22;2019;48.200;11.548;2022-07-01T15:32:22;19.70;77.70
4010;DHT22;2019;48.200;11.548;2022-07-01T15:34:48;19.70;77.80
4010;DHT22;2019;48.200;11.548;2022-07-01T15:37:13;19.70;77.60
4010;DHT22;2019;48.200;11.548;2022-07-01T15:39:39;19.70;77.70
4010;DHT22;2019;48.200;11.548;2022-07-01T15:42:05;19.80;77.60
4010;DHT22;2019;48.200;11.548;2022-07-01T15:44:34;19.70;77.70
4010;DHT22;2019;48.200;11.548;2022-07-01T15:47:00;19.60;77.40
4010;DHT22;2019;48.200;11.548;2022-07-01T15:49:48;19.60;77.90
4010;DHT22;2019;48.200;11.548;2022-07-01T15:52:14;19.70;77.40
4010;DHT22;2019;48.200;11.548;2022-07-01T15:54:39;19.70;77.50
4010;DHT22;2019;48.200;11.548;2022-07-01T15:57:05;19.60;77.30
4010;DHT22;2019;48.200;11.548;2022-07-01T15:59:32;19.70;77.10
4010;DHT22;2019;48.200;11.548;2022-07-01T16:01:57;19.60;76.50
4010;DHT22;2019;48.200;11.548;2022-07-01T16:04:31;19.70;76.80
4010;DHT22;2019;48.200;11.548;2022-07-01T16:06:56;19.70;76.50
4010;DHT22;2019;48.200;11.548;2022-07-01T16:09:22;19.70;76.10